Time;durP1;ratioP1;P1;durP2;ratioP2;P2;SDS_P1;SDS_P2;PMS_P1;PMS_P2;Temp;Humidity;BMP_temperature;BMP_pressure;BME280_temperature;BME280_humidity;BME280_pressure;Samples;Min_cycle;Max_cycle;Signal;HPM_P1;HPM_P2
2021/12/25 00:00:12;;;;;;;2.75;0.55;;;20.10;50.00;;;;;;5032718;28;20080;-62
2021/12/25 00:02:38;;;;;;;3.10;0.55;;;20.10;50.00;;;;;;5033560;28;20060;-62
2021/12/25 00:05:04;;;;;;;2.30;0.60;;;20.10;50.00;;;;;;5019046;28;20041;-63
2021/12/25 00:07:30;;;;;;;2.45;0.60;;;20.10;50.00;;;;;;5012948;28;20079;-62
2021/12/25 00:09:56;;;;;;;2.63;0.60;;;20.10;50.00;;;;;;5011841;28;20046;-63
2021/12/25 00:12:21;;;;;;;2.45;0.60;;;20.10;50.00;;;;;;5013456;28;20080;-62
2021/12/25 00:14:47;;;;;;;2.53;0.70;;;20.00;49.80;;;;;;5010751;28;20081;-63
2021/12/25 00:17:12;;;;;;;1.80;0.60;;;20.00;49.80;;;;;;5013293;28;20046;-63
2021/12/25 00:19:38;;;;;;;2.08;0.80;;;20.00;49.90;;;;;;5011938;28;20050;-63
2021/12/25 00:22:03;;;;;;;1.15;0.50;;;20.00;49.80;;;;;;5010998;28;20104;-63
2021/12/25 00:24:29;;;;;;;2.50;0.70;;;20.00;49.80;;;;;;5012130;28;20054;-63
2021/12/25 00:31:56;;;;;;;;;;;19.90;49.70;;;;;;5013041;28;20457;-63
2021/12/25 00:34:23;;;;;;;2.13;0.70;;;19.90;49.70;;;;;;5012106;28;20287;-63
2021/12/25 00:36:49;;;;;;;1.98;0.50;;;19.90;49.80;;;;;;5011546;28;20050;-63
2021/12/25 00:39:15;;;;;;;3.08;0.90;;;19.90;49.70;;;;;;5011238;28;20194;-63
2021/12/25 00:41:41;;;;;;;1.88;0.50;;;19.90;49.60;;;;;;5011754;28;20056;-63
2021/12/25 00:44:06;;;;;;;2.03;0.70;;;19.90;49.60;;;;;;5011763;28;20046;-63
2021/12/25 00:46:32;;;;;;;1.52;0.50;;;19.90;49.50;;;;;;5012436;28;20053;-63
2021/12/25 00:48:57;;;;;;;1.83;0.60;;;19.80;49.30;;;;;;5011202;28;20552;-63
2021/12/25 00:51:23;;;;;;;1.63;0.43;;;19.80;49.50;;;;;;5028307;28;20088;-63
2021/12/25 00:53:48;;;;;;;4.45;0.75;;;19.80;49.40;;;;;;5012692;28;20050;-63
2021/12/25 00:56:14;;;;;;;3.13;0.80;;;19.80;49.50;;;;;;5010462;28;20042;-63
2021/12/25 00:58:40;;;;;;;2.47;0.60;;;19.80;49.50;;;;;;5011045;28;20461;-63
2021/12/25 01:01:05;;;;;;;2.20;0.63;;;19.80;49.40;;;;;;5011689;28;20046;-63
2021/12/25 01:03:31;;;;;;;1.80;0.60;;;19.80;49.40;;;;;;5009983;28;20038;-62
2021/12/25 01:05:56;;;;;;;2.97;0.70;;;19.80;49.30;;;;;;5010625;28;20124;-63
2021/12/25 01:08:22;;;;;;;3.35;0.70;;;19.80;49.80;;;;;;5011387;28;20157;-62
2021/12/25 01:10:47;;;;;;;2.28;0.52;;;19.80;49.20;;;;;;5010590;28;20464;-63
2021/12/25 01:13:23;;;;;;;1.23;0.40;;;19.80;49.20;;;;;;5010384;28;20480;-63
2021/12/25 01:16:04;;;;;;;1.17;0.50;;;19.70;49.30;;;;;;5013147;28;20046;-63
2021/12/25 01:34:51;;;;;;;2.42;0.50;;;19.60;48.90;;;;;;5014616;28;20054;-63
2021/12/25 01:37:18;;;;;;;1.35;0.45;;;19.60;48.80;;;;;;5014853;28;20038;-63
2021/12/25 01:40:14;;;;;;;2.28;0.50;;;19.60;48.80;;;;;;5014695;28;20404;-62
2021/12/25 01:48:02;;;;;;;3.55;0.68;;;19.60;48.70;;;;;;5014552;28;20058;-62
2021/12/25 01:50:28;;;;;;;1.58;0.50;;;19.50;48.70;;;;;;5015758;28;20465;-62
2021/12/25 01:52:54;;;;;;;1.45;0.47;;;19.50;49.30;;;;;;5013887;28;20084;-63
2021/12/25 01:55:24;;;;;;;2.08;0.50;;;19.50;48.50;;;;;;5016139;28;20514;-62
2021/12/25 01:57:50;;;;;;;1.98;0.50;;;19.50;48.50;;;;;;5014770;28;20050;-62
2021/12/25 02:00:20;;;;;;;0.95;0.45;;;19.50;48.50;;;;;;5013174;28;20049;-63
2021/12/25 02:02:46;;;;;;;2.42;0.50;;;19.50;48.50;;;;;;5015320;28;20053;-62
2021/12/25 02:05:11;;;;;;;3.00;0.50;;;19.50;48.40;;;;;;5015681;28;20416;-62
2021/12/25 02:07:37;;;;;;;3.58;0.40;;;19.50;48.40;;;;;;5014932;28;20056;-63
2021/12/25 02:10:04;;;;;;;1.70;0.60;;;19.50;48.40;;;;;;5014142;28;20049;-62
2021/12/25 02:12:30;;;;;;;2.65;0.50;;;19.40;48.30;;;;;;5014839;28;20049;-63
2021/12/25 02:15:02;;;;;;;2.00;0.52;;;19.40;48.30;;;;;;5014077;28;20535;-62
2021/12/25 02:17:46;;;;;;;2.00;0.40;;;19.40;48.20;;;;;;5015533;28;20133;-63
2021/12/25 02:20:23;;;;;;;2.88;0.40;;;19.40;48.10;;;;;;5014548;28;20503;-62
2021/12/25 02:22:49;;;;;;;2.87;0.50;;;19.40;48.00;;;;;;5014186;28;20042;-63
2021/12/25 02:25:15;;;;;;;3.80;0.50;;;19.40;48.10;;;;;;5014087;28;20038;-63
2021/12/25 02:27:43;;;;;;;2.15;0.50;;;19.40;48.10;;;;;;5013705;28;20042;-63
2021/12/25 02:30:09;;;;;;;2.05;0.40;;;19.30;47.90;;;;;;5013377;28;20122;-63
2021/12/25 02:32:34;;;;;;;1.20;0.40;;;19.40;47.90;;;;;;5013945;28;20128;-63
2021/12/25 02:35:00;;;;;;;2.78;0.50;;;19.30;47.90;;;;;;5014393;28;20136;-63
2021/12/25 02:37:25;;;;;;;1.40;0.40;;;19.30;47.90;;;;;;5013693;28;20042;-63
2021/12/25 02:39:51;;;;;;;2.03;0.52;;;19.40;47.90;;;;;;5013592;28;20057;-63
2021/12/25 02:42:17;;;;;;;1.27;0.45;;;19.30;47.70;;;;;;5013311;28;20041;-63
2021/12/25 02:44:43;;;;;;;1.75;0.50;;;19.40;47.70;;;;;;5013459;28;20615;-63
2021/12/25 02:47:18;;;;;;;1.85;0.47;;;19.40;47.70;;;;;;5013492;28;20091;-63
2021/12/25 02:49:49;;;;;;;1.23;0.32;;;19.30;47.40;;;;;;4997954;28;20042;-62
2021/12/25 02:52:14;;;;;;;2.15;0.80;;;19.40;47.40;;;;;;5013894;28;20049;-62
2021/12/25 02:54:40;;;;;;;0.98;0.32;;;19.30;47.40;;;;;;5012677;28;20050;-63
2021/12/25 02:57:06;;;;;;;1.70;0.50;;;19.40;47.30;;;;;;5013692;28;20046;-63
2021/12/25 02:59:32;;;;;;;1.23;0.50;;;19.40;47.20;;;;;;5013503;28;20378;-62
2021/12/25 03:02:07;;;;;;;1.73;0.35;;;19.40;47.10;;;;;;4997353;28;20057;-63
2021/12/25 03:04:35;;;;;;;3.03;0.50;;;19.40;47.10;;;;;;4992841;28;20050;-63
2021/12/25 03:07:00;;;;;;;1.40;0.40;;;19.40;47.00;;;;;;4993544;28;20055;-63
2021/12/25 03:09:26;;;;;;;1.48;0.50;;;19.40;47.00;;;;;;4992633;28;20489;-63
2021/12/25 03:11:52;;;;;;;2.42;0.50;;;19.40;46.90;;;;;;4994826;28;20081;-63
2021/12/25 03:14:37;;;;;;;2.65;0.40;;;19.40;46.90;;;;;;4995085;28;20043;-62
2021/12/25 03:17:03;;;;;;;1.65;0.40;;;19.40;46.90;;;;;;4992637;28;20053;-63
2021/12/25 03:19:33;;;;;;;1.10;0.43;;;19.40;46.80;;;;;;4994810;28;20046;-63
2021/12/25 03:21:59;;;;;;;1.92;0.30;;;19.50;46.90;;;;;;4994433;28;20074;-63
2021/12/25 03:24:26;;;;;;;1.42;0.30;;;19.50;46.90;;;;;;4994223;28;20162;-63
2021/12/25 03:26:54;;;;;;;2.42;0.50;;;19.50;46.70;;;;;;4994366;28;20046;-63
2021/12/25 03:29:20;;;;;;;2.35;0.38;;;19.50;46.70;;;;;;4994208;28;20537;-62
2021/12/25 03:31:46;;;;;;;1.60;0.47;;;19.50;46.70;;;;;;4993554;28;20042;-63
2021/12/25 03:34:11;;;;;;;0.82;0.22;;;19.50;46.60;;;;;;4992942;28;20042;-63
2021/12/25 03:36:37;;;;;;;0.65;0.25;;;19.50;46.50;;;;;;4993265;28;20048;-63
2021/12/25 03:39:03;;;;;;;1.50;0.38;;;19.50;46.50;;;;;;4992263;28;20113;-63
2021/12/25 03:41:29;;;;;;;1.45;0.38;;;19.50;46.50;;;;;;4993362;28;20045;-63
2021/12/25 03:43:56;;;;;;;2.58;0.40;;;19.60;46.50;;;;;;4993179;28;20402;-63
2021/12/25 03:46:22;;;;;;;0.85;0.32;;;19.50;46.30;;;;;;4994339;28;20049;-63
2021/12/25 03:59:16;;;;;;;0.80;0.30;;;19.50;46.10;;;;;;4993482;28;20070;-63
2021/12/25 04:01:51;;;;;;;1.15;0.30;;;19.60;46.10;;;;;;4993640;28;20049;-63
2021/12/25 04:06:55;;;;;;;1.27;0.40;;;19.60;46.00;;;;;;4992735;28;20077;-63
2021/12/25 04:09:31;;;;;;;1.40;0.30;;;19.60;45.90;;;;;;4992541;28;20145;-63
2021/12/25 04:12:05;;;;;;;0.80;0.30;;;19.60;45.90;;;;;;4991563;28;20042;-63
2021/12/25 04:14:31;;;;;;;1.55;0.30;;;19.60;45.80;;;;;;4992530;28;20100;-63
2021/12/25 04:16:56;;;;;;;0.43;0.30;;;19.60;45.80;;;;;;5013195;28;20132;-63
2021/12/25 04:19:22;;;;;;;0.77;0.30;;;19.60;45.80;;;;;;5011360;28;20077;-62
2021/12/25 04:21:54;;;;;;;1.08;0.25;;;19.60;45.60;;;;;;5011657;28;20046;-62
2021/12/25 04:24:20;;;;;;;0.40;0.20;;;19.60;45.60;;;;;;5011963;28;20084;-62
2021/12/25 04:26:47;;;;;;;3.15;0.40;;;19.60;45.60;;;;;;5012151;28;20057;-63
2021/12/25 04:30:01;;;;;;;1.05;0.40;;;19.60;45.60;;;;;;5012931;28;20552;-63
2021/12/25 04:49:46;;;;;;;0.55;0.30;;;19.70;45.50;;;;;;5012314;28;20053;-63
2021/12/25 05:04:59;;;;;;;1.00;0.30;;;19.70;45.20;;;;;;5029656;28;20082;-63
2021/12/25 05:07:24;;;;;;;0.88;0.30;;;19.70;45.20;;;;;;5030313;28;20439;-63
2021/12/25 05:09:50;;;;;;;1.67;0.55;;;19.70;45.20;;;;;;5031179;28;20053;-63
2021/12/25 05:12:15;;;;;;;0.38;0.22;;;19.70;45.10;;;;;;5032182;28;20038;-62
2021/12/25 05:14:41;;;;;;;1.85;0.30;;;19.70;45.10;;;;;;5016356;28;20042;-63
2021/12/25 05:17:07;;;;;;;1.20;0.20;;;19.70;45.10;;;;;;5011498;28;20046;-63
2021/12/25 05:19:33;;;;;;;1.95;0.30;;;19.80;45.10;;;;;;5012355;28;20041;-63
2021/12/25 05:21:59;;;;;;;0.95;0.20;;;19.70;45.00;;;;;;5012156;28;20125;-62
2021/12/25 05:24:27;;;;;;;0.68;0.28;;;19.80;45.10;;;;;;5010903;28;20041;-62
2021/12/25 05:26:56;;;;;;;1.42;0.30;;;19.80;45.00;;;;;;5012004;28;20053;-63
2021/12/25 05:29:24;;;;;;;0.85;0.30;;;19.80;45.10;;;;;;5011624;28;20073;-63
2021/12/25 05:31:49;;;;;;;0.87;0.40;;;19.80;45.00;;;;;;5012270;28;20042;-62
2021/12/25 05:34:15;;;;;;;1.10;0.22;;;19.80;45.00;;;;;;5012209;28;20068;-63
2021/12/25 05:36:40;;;;;;;0.75;0.20;;;19.80;44.90;;;;;;5011297;28;20077;-63
2021/12/25 05:39:11;;;;;;;0.63;0.28;;;19.80;44.90;;;;;;5012386;28;20120;-63
2021/12/25 05:41:36;;;;;;;0.95;0.28;;;19.80;44.90;;;;;;5012328;28;20046;-63
2021/12/25 05:44:02;;;;;;;0.77;0.20;;;19.80;44.80;;;;;;5011430;28;20038;-62
2021/12/25 05:46:28;;;;;;;0.40;0.13;;;19.80;44.80;;;;;;5011464;28;20053;-62
2021/12/25 05:48:53;;;;;;;0.88;0.20;;;19.80;44.80;;;;;;5010625;28;20053;-63
2021/12/25 05:51:19;;;;;;;1.38;0.30;;;19.80;44.80;;;;;;5011559;28;20142;-63
2021/12/25 05:53:45;;;;;;;2.50;0.50;;;19.80;44.70;;;;;;5010562;28;20396;-62
2021/12/25 05:56:10;;;;;;;0.75;0.30;;;19.80;44.70;;;;;;5011836;28;20041;-62
2021/12/25 05:58:36;;;;;;;0.38;0.20;;;19.80;44.60;;;;;;5010288;28;20046;-62
2021/12/25 06:01:03;;;;;;;0.52;0.20;;;19.80;44.60;;;;;;5011748;28;20422;-62
2021/12/25 06:03:28;;;;;;;1.08;0.30;;;19.80;44.50;;;;;;5012901;28;20148;-63
2021/12/25 06:05:54;;;;;;;1.73;0.20;;;19.80;44.50;;;;;;5014492;28;20074;-62
2021/12/25 06:08:19;;;;;;;2.58;0.30;;;19.80;44.40;;;;;;5013617;28;20478;-62
2021/12/25 06:10:45;;;;;;;0.95;0.30;;;19.80;44.40;;;;;;5013419;28;20045;-62
2021/12/25 06:13:16;;;;;;;0.50;0.20;;;19.80;44.50;;;;;;5013358;28;20497;-62
2021/12/25 06:15:42;;;;;;;0.40;0.20;;;19.80;44.40;;;;;;5015572;28;20054;-63
2021/12/25 06:18:09;;;;;;;0.98;0.10;;;19.80;44.40;;;;;;5015474;28;20034;-62
2021/12/25 06:20:34;;;;;;;0.65;0.30;;;19.90;44.50;;;;;;5014816;28;20133;-63
2021/12/25 06:23:00;;;;;;;0.43;0.17;;;19.90;44.50;;;;;;5013824;28;20563;-63
2021/12/25 06:25:25;;;;;;;0.35;0.20;;;19.90;44.40;;;;;;5015719;28;20061;-62
2021/12/25 06:27:51;;;;;;;0.98;0.20;;;19.90;44.40;;;;;;5012971;28;20053;-63
2021/12/25 06:30:16;;;;;;;0.90;0.20;;;19.90;44.40;;;;;;5014122;28;20058;-63
2021/12/25 06:32:42;;;;;;;0.57;0.20;;;19.90;44.30;;;;;;5014385;28;20049;-62
2021/12/25 06:35:08;;;;;;;1.35;0.22;;;19.90;44.40;;;;;;5015301;28;20049;-63
2021/12/25 06:37:33;;;;;;;0.95;0.30;;;19.90;44.40;;;;;;5015636;28;20049;-63
2021/12/25 06:39:59;;;;;;;1.25;0.20;;;19.90;44.40;;;;;;5013793;28;20042;-63
2021/12/25 06:42:24;;;;;;;1.23;0.30;;;19.90;44.30;;;;;;5015068;28;20479;-63
2021/12/25 06:44:50;;;;;;;0.40;0.20;;;19.90;44.30;;;;;;5013300;28;20049;-62
2021/12/25 06:47:16;;;;;;;1.30;0.20;;;19.90;45.00;;;;;;5014316;28;20046;-63
2021/12/25 06:49:41;;;;;;;0.85;0.20;;;19.90;44.30;;;;;;5014289;28;20048;-63
2021/12/25 06:52:07;;;;;;;0.88;0.20;;;19.90;44.20;;;;;;5015200;28;20077;-63
2021/12/25 06:54:32;;;;;;;1.25;0.20;;;19.90;44.10;;;;;;5013998;28;20038;-63
2021/12/25 06:56:58;;;;;;;1.05;0.20;;;19.90;44.20;;;;;;5012485;28;20127;-63
2021/12/25 06:59:23;;;;;;;0.35;0.10;;;19.90;44.10;;;;;;5013604;28;20070;-63
2021/12/25 07:01:49;;;;;;;2.00;0.38;;;19.90;44.10;;;;;;5016622;28;20033;-62
2021/12/25 07:04:15;;;;;;;3.35;0.20;;;19.90;44.00;;;;;;5022355;28;20045;-62
2021/12/25 07:06:40;;;;;;;1.80;0.20;;;19.90;43.90;;;;;;5016743;28;20111;-62
2021/12/25 07:09:06;;;;;;;2.08;0.52;;;19.90;43.80;;;;;;5013518;28;20088;-61
2021/12/25 07:11:32;;;;;;;2.67;0.30;;;19.90;43.70;;;;;;5014359;28;20393;-60
2021/12/25 07:14:00;;;;;;;1.17;0.20;;;19.90;43.70;;;;;;5012340;28;20485;-61
2021/12/25 07:16:26;;;;;;;1.15;0.10;;;19.90;43.60;;;;;;5013881;28;20042;-61
2021/12/25 07:18:51;;;;;;;2.38;0.30;;;19.90;43.50;;;;;;5014012;28;20044;-62
2021/12/25 07:21:17;;;;;;;1.00;0.30;;;19.90;43.30;;;;;;5014255;28;20489;-62
2021/12/25 07:23:42;;;;;;;6.00;0.30;;;19.90;43.20;;;;;;5013142;28;20050;-61
2021/12/25 07:26:08;;;;;;;2.70;0.40;;;19.90;43.20;;;;;;5013133;28;20168;-62
2021/12/25 07:28:34;;;;;;;1.58;0.28;;;19.90;43.90;;;;;;5014210;28;20057;-62
2021/12/25 07:31:00;;;;;;;1.25;0.20;;;19.90;43.30;;;;;;5014247;28;20191;-61
2021/12/25 07:33:27;;;;;;;0.60;0.20;;;19.90;43.30;;;;;;5021074;28;20049;-60
2021/12/25 07:35:53;;;;;;;0.95;0.20;;;19.90;43.30;;;;;;5017441;28;20394;-60
2021/12/25 07:38:20;;;;;;;2.15;0.30;;;19.90;43.40;;;;;;5018674;28;20034;-60
2021/12/25 07:40:46;;;;;;;3.00;0.30;;;19.90;43.40;;;;;;5019651;28;20504;-61
2021/12/25 07:43:11;;;;;;;2.53;0.30;;;19.90;43.40;;;;;;5021288;28;20106;-64
2021/12/25 07:45:37;;;;;;;1.52;0.30;;;19.90;43.50;;;;;;5024224;28;20037;-62
2021/12/25 07:48:03;;;;;;;0.70;0.20;;;19.90;43.50;;;;;;5021820;28;20049;-62
2021/12/25 07:50:31;;;;;;;3.20;0.20;;;20.00;43.70;;;;;;5022925;28;20052;-62
2021/12/25 07:52:57;;;;;;;1.75;0.25;;;20.00;43.70;;;;;;5030669;28;20045;-60
2021/12/25 07:55:22;;;;;;;1.65;0.30;;;20.00;43.80;;;;;;5032464;28;20135;-62
2021/12/25 07:57:48;;;;;;;1.35;0.15;;;20.00;44.40;;;;;;5031359;28;20125;-61
2021/12/25 08:00:14;;;;;;;2.03;0.30;;;19.90;43.80;;;;;;5033457;28;20068;-61
2021/12/25 08:02:40;;;;;;;2.33;0.20;;;20.00;43.80;;;;;;5033611;28;20187;-61
2021/12/25 08:05:07;;;;;;;1.00;0.20;;;20.00;43.70;;;;;;5032407;28;20041;-61
2021/12/25 08:07:32;;;;;;;4.82;0.20;;;20.00;43.80;;;;;;5031703;28;20060;-61
2021/12/25 08:10:11;;;;;;;3.67;0.30;;;20.00;43.80;;;;;;5032336;28;20041;-61
2021/12/25 08:12:44;;;;;;;1.42;0.20;;;20.00;43.70;;;;;;5032261;28;20055;-61
2021/12/25 08:15:10;;;;;;;3.92;0.20;;;20.00;43.80;;;;;;5019280;28;20492;-61
2021/12/25 08:17:35;;;;;;;1.65;0.20;;;20.00;43.80;;;;;;5021138;28;20049;-61
2021/12/25 08:20:01;;;;;;;1.45;0.20;;;20.00;43.90;;;;;;5022762;28;20063;-62
2021/12/25 08:22:27;;;;;;;1.65;0.30;;;20.00;43.80;;;;;;5021244;28;20069;-60
2021/12/25 08:24:52;;;;;;;1.73;0.20;;;20.00;43.80;;;;;;5022121;28;20041;-60
2021/12/25 08:27:18;;;;;;;2.38;0.32;;;20.00;43.90;;;;;;5021059;28;20111;-62
2021/12/25 08:29:44;;;;;;;1.20;0.20;;;20.00;44.00;;;;;;5020370;28;20037;-61
2021/12/25 08:32:09;;;;;;;3.70;0.35;;;20.00;43.90;;;;;;5021588;28;20037;-62
2021/12/25 08:34:37;;;;;;;0.40;0.20;;;20.10;44.10;;;;;;5021873;28;20045;-62
2021/12/25 08:37:02;;;;;;;1.17;0.30;;;20.10;44.10;;;;;;5020026;28;20033;-62
2021/12/25 08:39:28;;;;;;;0.60;0.20;;;20.10;44.00;;;;;;5021444;28;20052;-62
2021/12/25 08:42:01;;;;;;;0.55;0.20;;;20.10;43.90;;;;;;5021818;28;20428;-61
2021/12/25 08:44:35;;;;;;;0.88;0.20;;;20.10;44.00;;;;;;5018742;28;20551;-62
2021/12/25 08:47:04;;;;;;;3.83;0.30;;;20.10;44.00;;;;;;5020435;28;20045;-62
2021/12/25 08:49:30;;;;;;;1.73;0.20;;;20.10;43.80;;;;;;5022570;28;20395;-62
2021/12/25 08:52:00;;;;;;;0.22;0.20;;;20.10;43.80;;;;;;5020872;28;20165;-62
2021/12/25 08:54:26;;;;;;;0.43;0.20;;;20.10;43.80;;;;;;5018022;28;20046;-62
2021/12/25 08:56:52;;;;;;;1.83;0.20;;;20.10;43.80;;;;;;5019095;28;20042;-61
2021/12/25 08:59:17;;;;;;;1.20;0.38;;;20.10;44.60;;;;;;5021390;28;20494;-62
2021/12/25 09:01:43;;;;;;;1.58;0.20;;;20.10;43.90;;;;;;5022042;28;20041;-62
2021/12/25 09:04:09;;;;;;;1.05;0.20;;;20.10;43.80;;;;;;5021685;28;20052;-63
2021/12/25 09:06:34;;;;;;;1.45;0.20;;;20.10;43.80;;;;;;5021984;28;20046;-63
2021/12/25 09:09:00;;;;;;;2.00;0.20;;;20.10;43.60;;;;;;5022164;28;20131;-62
2021/12/25 09:11:26;;;;;;;1.27;0.20;;;20.10;43.60;;;;;;5018739;28;20551;-62
2021/12/25 09:13:51;;;;;;;0.68;0.20;;;20.10;43.50;;;;;;5014424;28;20133;-61
2021/12/25 09:16:17;;;;;;;1.10;0.30;;;20.10;43.40;;;;;;5011812;28;20547;-61
2021/12/25 09:18:43;;;;;;;2.42;0.30;;;20.10;43.40;;;;;;5012745;28;20038;-61
2021/12/25 09:21:09;;;;;;;1.95;0.30;;;20.10;43.30;;;;;;5011614;28;20493;-61
2021/12/25 09:23:34;;;;;;;2.38;0.47;;;20.10;43.20;;;;;;5010650;28;20042;-62
2021/12/25 09:26:00;;;;;;;2.42;0.10;;;20.10;43.20;;;;;;5012526;28;20049;-62
2021/12/25 09:28:25;;;;;;;0.90;0.10;;;20.20;43.10;;;;;;5012074;28;20509;-62
2021/12/25 09:30:51;;;;;;;0.65;0.20;;;20.10;43.10;;;;;;5011712;28;20390;-62
2021/12/25 09:33:16;;;;;;;1.48;0.20;;;20.20;43.10;;;;;;5012572;28;20057;-62
2021/12/25 09:35:42;;;;;;;0.68;0.20;;;20.20;43.10;;;;;;5011845;28;20053;-62
2021/12/25 09:38:07;;;;;;;1.25;0.20;;;20.20;43.10;;;;;;5015758;28;20046;-61
2021/12/25 09:40:33;;;;;;;2.90;0.20;;;20.20;43.20;;;;;;5017729;28;20033;-63
2021/12/25 09:42:58;;;;;;;4.18;0.40;;;20.20;43.10;;;;;;5023142;28;20495;-60
2021/12/25 09:45:24;;;;;;;0.80;0.30;;;20.20;43.20;;;;;;5025228;28;20125;-60
2021/12/25 09:47:49;;;;;;;2.08;0.28;;;20.20;43.30;;;;;;5026116;28;20514;-60
2021/12/25 09:50:15;;;;;;;1.02;0.28;;;20.20;43.50;;;;;;5027051;28;20611;-62
2021/12/25 09:52:41;;;;;;;3.22;0.30;;;20.20;43.50;;;;;;5035612;28;20148;-64
2021/12/25 09:55:07;;;;;;;1.83;0.30;;;20.20;43.50;;;;;;5035838;28;20527;-61
2021/12/25 09:57:33;;;;;;;2.00;0.30;;;20.20;43.50;;;;;;5023485;28;20046;-61
2021/12/25 09:59:58;;;;;;;1.88;0.20;;;20.20;43.40;;;;;;5025630;28;20042;-61
2021/12/25 10:02:24;;;;;;;1.58;0.30;;;20.30;43.50;;;;;;5025575;28;20409;-61
2021/12/25 10:04:51;;;;;;;3.78;0.38;;;20.30;43.60;;;;;;5014950;28;20048;-63
2021/12/25 10:07:18;;;;;;;2.50;0.40;;;20.30;43.60;;;;;;5014538;28;20478;-62
2021/12/25 10:09:56;;;;;;;1.80;0.40;;;20.30;43.40;;;;;;5014487;28;20081;-62
2021/12/25 10:12:25;;;;;;;3.22;0.30;;;20.30;43.30;;;;;;5015242;28;20116;-62
2021/12/25 10:14:52;;;;;;;1.35;0.38;;;20.30;43.40;;;;;;5014234;28;20057;-62
2021/12/25 10:17:19;;;;;;;5.03;0.40;;;20.30;43.40;;;;;;5024443;28;20042;-62
2021/12/25 10:20:14;;;;;;;4.60;0.47;;;20.30;43.70;;;;;;5013715;28;20061;-62
2021/12/25 10:22:59;;;;;;;2.97;0.40;;;20.30;43.70;;;;;;5015623;28;20523;-62
2021/12/25 10:25:28;;;;;;;2.78;0.50;;;20.30;43.70;;;;;;5013471;28;20049;-62
2021/12/25 10:27:56;;;;;;;2.78;0.40;;;20.30;43.80;;;;;;5015316;28;20052;-63
2021/12/25 10:30:22;;;;;;;3.20;0.45;;;20.30;43.80;;;;;;5022279;28;20129;-62
2021/12/25 10:32:48;;;;;;;3.33;0.40;;;20.30;43.70;;;;;;5024157;28;20112;-62
2021/12/25 10:35:21;;;;;;;3.40;0.40;;;20.30;43.60;;;;;;5026677;28;20484;-61
2021/12/25 10:37:48;;;;;;;2.70;0.40;;;20.30;43.50;;;;;;5025857;28;20049;-62
2021/12/25 10:40:26;;;;;;;1.65;0.57;;;20.30;43.50;;;;;;5034377;28;20052;-62
2021/12/25 10:42:57;;;;;;;1.73;0.43;;;20.30;43.60;;;;;;5034956;28;20492;-62
2021/12/25 10:45:26;;;;;;;3.08;0.40;;;20.30;43.60;;;;;;5034672;28;20167;-61
2021/12/25 10:48:08;;;;;;;2.60;0.50;;;20.30;43.60;;;;;;5033355;28;20049;-62
2021/12/25 10:50:39;;;;;;;4.57;0.40;;;20.30;43.70;;;;;;5025155;28;20492;-62
2021/12/25 10:53:21;;;;;;;5.07;0.32;;;20.30;43.60;;;;;;5032889;28;20496;-61
2021/12/25 10:55:47;;;;;;;2.97;0.50;;;20.30;43.50;;;;;;5034692;28;20041;-61
2021/12/25 10:58:23;;;;;;;1.02;0.35;;;20.30;43.40;;;;;;5030723;28;20045;-61
2021/12/25 11:00:54;;;;;;;1.15;0.30;;;20.30;43.40;;;;;;5008615;28;20057;-63
2021/12/25 11:03:26;;;;;;;0.90;0.30;;;20.30;43.50;;;;;;4980969;28;20051;-62
2021/12/25 11:05:52;;;;;;;5.55;0.50;;;20.30;43.50;;;;;;4978229;28;20055;-66
2021/12/25 11:08:19;;;;;;;3.35;0.50;;;20.30;43.50;;;;;;4979908;28;20402;-59
2021/12/25 11:10:50;;;;;;;3.07;0.40;;;20.30;43.40;;;;;;4983383;28;20101;-62
2021/12/25 11:13:27;;;;;;;2.75;0.47;;;20.30;43.30;;;;;;4983092;28;20374;-62
2021/12/25 11:16:06;;;;;;;2.60;0.40;;;20.30;43.30;;;;;;4985087;28;20568;-63
2021/12/25 11:18:32;;;;;;;;;;;20.30;43.50;;;;;;5006290;28;20043;-62
2021/12/25 11:20:59;;;;;;;1.45;0.35;;;20.30;43.70;;;;;;5002079;28;20017;-62
2021/12/25 11:23:25;;;;;;;2.72;0.40;;;20.30;43.70;;;;;;5004443;28;20121;-62
2021/12/25 11:25:51;;;;;;;1.27;0.22;;;20.30;43.60;;;;;;4977878;28;20050;-62
2021/12/25 11:28:18;;;;;;;2.05;0.30;;;20.30;43.60;;;;;;4993170;28;20050;-62
2021/12/25 11:30:46;;;;;;;3.43;0.30;;;20.30;43.60;;;;;;5008981;28;20045;-62
2021/12/25 11:33:11;;;;;;;3.17;0.40;;;20.30;43.50;;;;;;5012387;28;20046;-62
2021/12/25 11:35:37;;;;;;;2.35;0.40;;;20.30;43.40;;;;;;5013271;28;20088;-62
2021/12/25 11:38:04;;;;;;;2.53;0.50;;;20.30;43.40;;;;;;5013685;28;20556;-62
2021/12/25 11:40:30;;;;;;;2.15;0.50;;;20.30;43.50;;;;;;5014534;28;20038;-62
2021/12/25 11:42:59;;;;;;;2.10;0.50;;;20.30;43.50;;;;;;4995660;28;20401;-62
2021/12/25 11:45:28;;;;;;;1.40;0.40;;;20.30;43.60;;;;;;5014406;28;20092;-62
2021/12/25 11:47:59;;;;;;;2.22;0.38;;;20.30;43.60;;;;;;5013179;28;20057;-59
2021/12/25 11:50:31;;;;;;;1.75;0.57;;;20.30;43.40;;;;;;5013300;28;20141;-61
2021/12/25 11:53:08;;;;;;;3.70;0.40;;;20.30;43.30;;;;;;4992718;28;20057;-68
2021/12/25 11:56:01;;;;;;;2.22;0.40;;;20.30;43.20;;;;;;4994417;28;20129;-60
2021/12/25 11:58:37;;;;;;;2.05;0.60;;;20.30;43.20;;;;;;4992080;28;20050;-61
2021/12/25 12:01:26;;;;;;;4.47;0.50;;;20.30;43.20;;;;;;4982948;28;20042;-63
2021/12/25 12:03:55;;;;;;;2.97;0.50;;;20.30;43.10;;;;;;4977913;28;20406;-63
2021/12/25 12:06:46;;;;;;;3.67;0.50;;;20.30;43.30;;;;;;4980191;28;20043;-63
2021/12/25 12:09:30;;;;;;;2.97;0.40;;;20.30;43.60;;;;;;4977181;28;20046;-63
2021/12/25 12:12:14;;;;;;;3.78;0.50;;;20.40;43.70;;;;;;4978601;28;20130;-63
2021/12/25 12:14:40;;;;;;;3.95;0.55;;;20.40;43.90;;;;;;4999509;28;20485;-62
2021/12/25 12:17:07;;;;;;;2.70;0.50;;;20.40;43.90;;;;;;5013403;28;20059;-62
2021/12/25 12:19:33;;;;;;;3.10;0.50;;;20.40;43.30;;;;;;5011636;28;20100;-62
2021/12/25 12:22:14;;;;;;;3.22;0.57;;;20.40;42.80;;;;;;5012039;28;20041;-62
2021/12/25 12:24:48;;;;;;;2.17;0.50;;;20.30;42.40;;;;;;5012432;28;20405;-62
2021/12/25 12:27:30;;;;;;;3.03;0.43;;;20.30;42.30;;;;;;4996692;28;20046;-62
2021/12/25 12:29:57;;;;;;;1.80;0.57;;;20.30;42.20;;;;;;5012039;28;20072;-62
2021/12/25 12:32:35;;;;;;;3.45;0.40;;;20.30;42.30;;;;;;5012833;28;20111;-62
2021/12/25 12:35:02;;;;;;;2.40;0.45;;;20.30;42.20;;;;;;5012105;28;20144;-62
2021/12/25 12:37:32;;;;;;;3.13;0.52;;;20.30;42.20;;;;;;5012429;28;20092;-62
2021/12/25 12:40:03;;;;;;;1.25;0.50;;;20.30;42.20;;;;;;5012398;28;20046;-62
2021/12/25 12:42:42;;;;;;;3.70;0.50;;;20.30;43.00;;;;;;5013522;28;20042;-62
2021/12/25 12:45:08;;;;;;;2.60;0.70;;;20.30;42.10;;;;;;5012241;28;20056;-62
2021/12/25 12:47:34;;;;;;;1.48;0.55;;;20.30;42.10;;;;;;5012584;28;20049;-62
2021/12/25 12:49:59;;;;;;;2.42;0.60;;;20.30;42.00;;;;;;5013163;28;20045;-62
2021/12/25 12:52:34;;;;;;;2.08;0.60;;;20.30;42.00;;;;;;5012373;28;20038;-62
2021/12/25 12:55:07;;;;;;;3.78;0.50;;;20.30;42.10;;;;;;5011509;28;20397;-62
2021/12/25 12:57:43;;;;;;;2.70;0.93;;;20.30;42.00;;;;;;5013141;28;20038;-62
2021/12/25 13:00:15;;;;;;;1.67;0.50;;;20.30;42.00;;;;;;5010983;28;20046;-62
2021/12/25 13:02:48;;;;;;;1.45;0.50;;;20.30;41.90;;;;;;5011708;28;20049;-62
2021/12/25 13:05:16;;;;;;;1.42;0.60;;;20.30;41.90;;;;;;5012802;28;20058;-62
2021/12/25 13:07:43;;;;;;;1.95;0.50;;;20.30;41.90;;;;;;5010860;28;20608;-62
2021/12/25 13:10:24;;;;;;;1.67;0.57;;;20.30;41.90;;;;;;5012878;28;20388;-62
2021/12/25 13:12:51;;;;;;;2.65;0.80;;;20.30;41.80;;;;;;5016793;28;20397;-62
2021/12/25 13:15:22;;;;;;;1.88;0.68;;;20.30;41.90;;;;;;5018972;28;20044;-62
2021/12/25 13:17:51;;;;;;;2.33;0.70;;;20.30;41.80;;;;;;5019069;28;20081;-61
2021/12/25 13:20:17;;;;;;;3.25;0.60;;;20.30;41.70;;;;;;5018105;28;20057;-62
2021/12/25 13:22:42;;;;;;;1.40;0.75;;;20.30;41.70;;;;;;5018570;28;20045;-62
2021/12/25 13:25:10;;;;;;;1.02;0.50;;;20.30;41.70;;;;;;5018495;28;20498;-62
2021/12/25 13:27:36;;;;;;;1.30;0.52;;;20.30;41.60;;;;;;5018312;28;20042;-62
2021/12/25 13:30:07;;;;;;;3.25;0.60;;;20.30;41.60;;;;;;5019241;28;20050;-62
2021/12/25 13:32:32;;;;;;;2.05;0.70;;;20.30;41.50;;;;;;5019342;28;20092;-62
2021/12/25 13:34:58;;;;;;;1.67;0.50;;;20.30;41.50;;;;;;5018343;28;20505;-62
2021/12/25 13:37:23;;;;;;;2.60;0.65;;;20.40;41.60;;;;;;5019467;28;20033;-62
2021/12/25 13:39:49;;;;;;;1.52;0.70;;;20.30;41.40;;;;;;5017937;28;20100;-62
2021/12/25 13:42:16;;;;;;;2.40;0.90;;;20.40;41.50;;;;;;5017157;28;20045;-62
2021/12/25 13:44:42;;;;;;;2.17;0.60;;;20.30;41.40;;;;;;5017689;28;20044;-62
2021/12/25 13:47:21;;;;;;;2.03;0.50;;;20.40;41.40;;;;;;5018780;28;20045;-62
2021/12/25 13:49:55;;;;;;;2.00;0.70;;;20.40;41.40;;;;;;5018374;28;20053;-62
2021/12/25 13:52:24;;;;;;;1.60;0.50;;;20.40;41.40;;;;;;5017849;28;20038;-62
2021/12/25 13:54:56;;;;;;;;;;;20.30;41.20;;;;;;5019314;28;20046;-63
2021/12/25 13:57:23;;;;;;;1.00;0.50;;;20.30;41.30;;;;;;5018304;28;19925;-62
2021/12/25 13:59:50;;;;;;;1.38;0.50;;;20.30;41.30;;;;;;5017638;28;20064;-62
2021/12/25 14:02:15;;;;;;;1.83;0.45;;;20.40;41.40;;;;;;5018032;28;20058;-62